createdAt,value
2023-03-03T00:01:09.892Z,40.00
2023-03-03T00:03:48.393Z,37.70
2023-03-03T00:06:19.016Z,40.27
2023-03-03T00:08:47.881Z,39.73
2023-03-03T00:11:16.388Z,38.47
2023-03-03T00:13:48.917Z,39.43
2023-03-03T00:16:23.474Z,36.40
2023-03-03T00:18:52.632Z,42.33
2023-03-03T00:21:29.505Z,41.87
2023-03-03T00:24:25.118Z,45.00
2023-03-03T00:26:55.619Z,39.37
2023-03-03T00:29:36.022Z,36.30
2023-03-03T00:32:25.678Z,37.40
2023-03-03T00:34:56.249Z,43.60
2023-03-03T00:37:30.420Z,40.77
2023-03-03T00:40:21.117Z,49.80
2023-03-03T00:42:52.422Z,40.70
2023-03-03T00:45:28.769Z,40.57
2023-03-03T00:47:58.575Z,44.53
2023-03-03T00:50:34.533Z,45.53
2023-03-03T00:53:12.269Z,40.90
2023-03-03T00:55:40.827Z,33.37
2023-03-03T00:58:08.886Z,39.73
2023-03-03T01:00:37.689Z,41.17
2023-03-03T01:03:07.821Z,43.10
2023-03-03T01:05:36.365Z,38.37
2023-03-03T01:08:05.197Z,38.80
2023-03-03T01:10:38.682Z,45.13
2023-03-03T01:13:07.814Z,45.20
2023-03-03T01:15:36.945Z,49.37
2023-03-03T01:18:05.210Z,41.50
2023-03-03T01:20:33.730Z,38.63
2023-03-03T01:23:02.196Z,38.07
2023-03-03T01:25:30.811Z,40.90
2023-03-03T01:28:00.643Z,38.73
2023-03-03T01:30:28.825Z,43.60
2023-03-03T01:32:56.819Z,38.27
2023-03-03T01:35:25.367Z,40.00
2023-03-03T01:37:53.405Z,40.87
2023-03-03T01:40:23.637Z,41.40
2023-03-03T01:42:52.723Z,38.03
2023-03-03T01:45:27.034Z,45.00
2023-03-03T01:48:01.225Z,42.33
2023-03-03T01:50:39.014Z,40.80
2023-03-03T01:53:12.815Z,41.77
2023-03-03T01:55:43.044Z,43.13
2023-03-03T01:58:15.595Z,43.70
2023-03-03T02:00:50.963Z,44.67
2023-03-03T02:03:21.042Z,41.07
2023-03-03T02:05:50.017Z,44.17
2023-03-03T02:08:22.842Z,43.27
2023-03-03T02:10:52.088Z,41.37
2023-03-03T02:13:20.305Z,47.87
2023-03-03T02:15:49.914Z,41.47
2023-03-03T02:18:21.114Z,37.10
2023-03-03T02:20:58.124Z,42.90
2023-03-03T02:23:32.003Z,35.47
2023-03-03T02:26:13.612Z,41.17
2023-03-03T02:28:42.010Z,43.63
2023-03-03T02:31:13.632Z,43.67
2023-03-03T02:33:43.425Z,38.83
2023-03-03T02:36:14.622Z,42.37
2023-03-03T02:38:48.784Z,42.70
2023-03-03T02:41:29.987Z,41.33
2023-03-03T02:44:01.967Z,44.20
2023-03-03T02:46:30.952Z,41.43
2023-03-03T02:48:59.203Z,42.20
2023-03-03T02:51:27.742Z,39.20
2023-03-03T02:53:55.982Z,48.10
2023-03-03T02:56:25.532Z,37.47
2023-03-03T02:58:53.980Z,48.80
2023-03-03T03:01:22.398Z,35.07
2023-03-03T03:03:50.964Z,44.87
2023-03-03T03:06:19.362Z,44.53
2023-03-03T03:08:47.736Z,42.93
2023-03-03T03:11:16.048Z,39.83
2023-03-03T03:13:45.938Z,43.87
2023-03-03T03:16:14.364Z,42.47
2023-03-03T03:18:42.867Z,40.73
2023-03-03T03:21:12.167Z,40.90
2023-03-03T03:23:40.604Z,43.17
2023-03-03T03:26:09.576Z,39.47
2023-03-03T03:28:38.096Z,50.10
2023-03-03T03:31:09.671Z,36.03
2023-03-03T03:33:38.222Z,39.70
2023-03-03T03:36:07.581Z,42.40
2023-03-03T03:38:36.708Z,44.47
2023-03-03T03:41:05.367Z,40.27
2023-03-03T03:43:33.918Z,43.43
2023-03-03T03:46:02.639Z,39.30
2023-03-03T03:48:32.846Z,42.03
2023-03-03T03:51:01.880Z,39.27
2023-03-03T03:53:30.284Z,36.60
2023-03-03T03:55:58.725Z,46.60
2023-03-03T03:58:27.044Z,38.70
2023-03-03T04:00:55.680Z,45.10
2023-03-03T04:03:24.473Z,41.43
2023-03-03T04:05:56.441Z,36.87
2023-03-03T04:08:25.197Z,39.07
2023-03-03T04:10:53.537Z,44.47
2023-03-03T04:13:21.936Z,41.10
2023-03-03T04:15:50.438Z,52.10
2023-03-03T04:18:18.788Z,45.47
2023-03-03T04:20:47.311Z,45.40
2023-03-03T04:23:17.079Z,43.57
2023-03-03T04:25:45.443Z,45.40
2023-03-03T04:28:13.832Z,44.27
2023-03-03T04:30:42.659Z,51.80
2023-03-03T04:33:14.231Z,43.43
2023-03-03T04:35:42.625Z,47.47
2023-03-03T04:38:11.064Z,47.90
2023-03-03T04:40:42.201Z,49.07
2023-03-03T04:43:10.917Z,48.93
2023-03-03T04:45:39.504Z,45.30
2023-03-03T04:48:08.300Z,43.97
2023-03-03T04:50:36.785Z,44.53
2023-03-03T04:53:05.171Z,39.70
2023-03-03T04:55:33.635Z,44.57
2023-03-03T04:58:03.421Z,43.80
2023-03-03T05:00:31.849Z,44.93
2023-03-03T05:03:00.745Z,50.70
2023-03-03T05:05:31.146Z,45.23
2023-03-03T05:07:59.628Z,47.00
2023-03-03T05:10:28.146Z,48.10
2023-03-03T05:12:56.505Z,45.77
2023-03-03T05:15:26.263Z,45.17
2023-03-03T05:17:56.480Z,48.37
2023-03-03T05:20:25.290Z,44.20
2023-03-03T05:22:54.907Z,46.50
2023-03-03T05:25:23.556Z,50.27
2023-03-03T05:27:52.138Z,53.73
2023-03-03T05:30:22.949Z,54.87
2023-03-03T05:32:52.814Z,46.60
2023-03-03T05:35:21.239Z,44.63
2023-03-03T05:37:49.782Z,38.30
2023-03-03T05:40:18.460Z,49.67
2023-03-03T05:42:47.183Z,54.03
2023-03-03T05:45:15.589Z,48.30
2023-03-03T05:47:44.262Z,45.90
2023-03-03T05:50:14.294Z,50.70
2023-03-03T05:52:42.968Z,52.73
2023-03-03T05:55:12.315Z,52.47
2023-03-03T05:57:40.655Z,46.43
2023-03-03T06:00:09.528Z,46.13
2023-03-03T06:02:38.167Z,44.53
2023-03-03T06:05:19.120Z,49.00
2023-03-03T06:10:33.996Z,47.93
2023-03-03T06:15:54.183Z,48.53
2023-03-03T06:21:03.792Z,48.27
2023-03-03T06:29:30.323Z,48.20
2023-03-03T06:32:00.426Z,41.53
2023-03-03T06:34:33.773Z,45.63
2023-03-03T06:37:03.218Z,53.67
2023-03-03T06:39:32.033Z,46.53
2023-03-03T06:42:00.943Z,45.27
2023-03-03T06:44:35.147Z,51.20
2023-03-03T06:47:11.911Z,47.00
2023-03-03T06:49:41.052Z,52.40
2023-03-03T06:52:14.606Z,52.83
2023-03-03T06:54:43.715Z,53.87
2023-03-03T06:57:19.599Z,48.37
2023-03-03T06:59:54.660Z,56.37
2023-03-03T07:02:24.876Z,46.93
2023-03-03T07:04:55.402Z,52.43
2023-03-03T07:07:25.051Z,44.87
2023-03-03T07:10:01.402Z,46.47
2023-03-03T07:12:32.434Z,51.03
2023-03-03T07:15:16.224Z,50.40
2023-03-03T07:17:50.524Z,48.90
2023-03-03T07:20:21.986Z,50.83
2023-03-03T07:22:51.482Z,48.00
2023-03-03T07:25:28.369Z,45.23
2023-03-03T07:27:58.839Z,52.57
2023-03-03T07:30:32.593Z,48.43
2023-03-03T07:33:02.958Z,53.33
2023-03-03T07:35:41.555Z,48.80
2023-03-03T07:38:19.447Z,56.07
2023-03-03T07:40:51.174Z,54.37
2023-03-03T07:43:36.586Z,55.47
2023-03-03T07:46:18.018Z,48.93
2023-03-03T07:51:30.249Z,46.77
2023-03-03T07:54:19.108Z,46.60
2023-03-03T07:56:48.428Z,48.87
2023-03-03T07:59:21.267Z,55.27
2023-03-03T08:01:58.258Z,49.10
2023-03-03T08:04:31.017Z,49.83
2023-03-03T08:07:00.616Z,55.47
2023-03-03T08:09:46.465Z,48.50
2023-03-03T08:12:21.641Z,47.70
2023-03-03T08:14:50.065Z,46.07
2023-03-03T08:17:22.594Z,51.73
2023-03-03T08:19:53.574Z,47.60
2023-03-03T08:22:27.496Z,46.80
2023-03-03T08:24:56.614Z,52.30
2023-03-03T08:27:27.734Z,53.63
2023-03-03T08:29:57.554Z,49.73
2023-03-03T08:32:34.293Z,51.57
2023-03-03T08:35:03.349Z,53.40
2023-03-03T08:37:32.330Z,43.80
2023-03-03T08:40:01.513Z,45.73
2023-03-03T08:42:30.914Z,48.77
2023-03-03T08:44:59.386Z,49.90
2023-03-03T08:47:31.160Z,54.87
2023-03-03T08:49:59.589Z,46.20
2023-03-03T08:52:29.273Z,46.20
2023-03-03T08:54:58.232Z,51.93
2023-03-03T08:57:26.807Z,41.27
2023-03-03T08:59:57.259Z,52.00
2023-03-03T09:02:27.797Z,47.47
2023-03-03T09:05:17.479Z,50.67
2023-03-03T09:07:47.970Z,46.53
2023-03-03T09:10:18.277Z,56.40
2023-03-03T09:12:49.609Z,51.83
2023-03-03T09:15:23.055Z,49.67
2023-03-03T09:17:54.335Z,51.17
2023-03-03T09:20:30.932Z,51.87
2023-03-03T09:23:04.478Z,48.23
2023-03-03T09:25:37.272Z,48.47
2023-03-03T09:28:06.485Z,49.07
2023-03-03T09:36:27.623Z,43.33
2023-03-03T09:38:59.357Z,45.77
2023-03-03T09:41:58.161Z,44.67
2023-03-03T09:44:43.631Z,46.47
2023-03-03T09:47:22.370Z,48.20
2023-03-03T09:49:59.692Z,56.13
2023-03-03T09:52:37.358Z,46.73
2023-03-03T09:55:17.889Z,54.33
2023-03-03T09:58:08.302Z,53.47
2023-03-03T10:00:45.164Z,44.97
2023-03-03T10:03:47.965Z,46.30
2023-03-03T10:06:22.562Z,53.60
2023-03-03T10:09:00.528Z,55.40
2023-03-03T10:11:36.067Z,49.00
2023-03-03T10:14:13.634Z,49.23
2023-03-03T10:17:09.075Z,51.77
2023-03-03T10:19:40.626Z,52.30
2023-03-03T10:22:17.975Z,51.30
2023-03-03T10:24:51.953Z,46.13
2023-03-03T10:27:29.059Z,62.03
2023-03-03T10:30:04.509Z,44.10
2023-03-03T10:32:38.668Z,44.30
2023-03-03T10:35:43.498Z,49.17
2023-03-03T10:38:22.655Z,42.70
2023-03-03T10:40:56.388Z,41.73
2023-03-03T10:43:32.812Z,40.80
2023-03-03T10:46:07.475Z,47.03
2023-03-03T10:49:12.714Z,45.00
2023-03-03T10:51:53.523Z,44.93
2023-03-03T10:54:31.036Z,45.60
2023-03-03T10:57:05.075Z,45.73
2023-03-03T10:59:45.424Z,45.27
2023-03-03T11:02:22.538Z,56.83
2023-03-03T11:05:02.427Z,51.60
2023-03-03T11:07:35.091Z,50.40
2023-03-03T11:10:08.458Z,44.63
2023-03-03T11:12:47.994Z,48.97
2023-03-03T11:15:29.082Z,47.83
2023-03-03T11:18:07.320Z,43.67
2023-03-03T11:20:40.636Z,51.83
2023-03-03T11:23:19.493Z,46.20
2023-03-03T11:25:51.916Z,43.03
2023-03-03T11:28:30.866Z,45.97
2023-03-03T11:31:08.647Z,44.90
2023-03-03T11:33:45.397Z,44.73
2023-03-03T11:36:18.511Z,44.70
2023-03-03T11:38:57.526Z,43.47
2023-03-03T11:41:33.331Z,44.47
2023-03-03T11:44:22.900Z,44.73
2023-03-03T11:46:58.279Z,35.77
2023-03-03T11:49:32.654Z,50.20
2023-03-03T11:52:05.139Z,44.23
2023-03-03T11:54:38.744Z,45.03
2023-03-03T11:57:16.232Z,43.03
2023-03-03T11:59:59.911Z,46.60
2023-03-03T12:02:44.777Z,46.40
2023-03-03T12:05:16.588Z,46.63
2023-03-03T12:07:48.199Z,43.47
2023-03-03T12:10:26.336Z,45.03
2023-03-03T12:12:59.676Z,49.37
2023-03-03T12:15:35.497Z,50.80
2023-03-03T12:18:30.297Z,43.83
2023-03-03T12:21:07.499Z,55.20
2023-03-03T12:23:43.071Z,50.93
2023-03-03T12:26:16.958Z,48.67
2023-03-03T12:29:02.799Z,44.30
2023-03-03T12:31:43.978Z,46.10
2023-03-03T12:34:18.866Z,67.23
2023-03-03T12:37:14.164Z,39.50
2023-03-03T12:39:50.999Z,45.53
2023-03-03T12:42:25.524Z,44.63
2023-03-03T12:44:59.385Z,51.30
2023-03-03T12:47:31.609Z,47.13
2023-03-03T12:50:08.513Z,49.83
2023-03-03T12:53:02.444Z,46.17
2023-03-03T12:55:36.686Z,52.10
2023-03-03T12:58:09.147Z,45.10
2023-03-03T13:00:42.796Z,44.53
2023-03-03T13:03:19.579Z,46.73
2023-03-03T13:05:55.373Z,47.13
2023-03-03T13:08:33.864Z,50.03
2023-03-03T13:11:11.048Z,46.43
2023-03-03T13:13:48.442Z,43.23
2023-03-03T13:16:35.249Z,42.37
2023-03-03T13:19:16.953Z,40.57
2023-03-03T13:21:49.940Z,42.37
2023-03-03T13:24:32.847Z,47.13
2023-03-03T13:27:06.456Z,41.33
2023-03-03T13:29:37.425Z,45.77
2023-03-03T13:32:12.828Z,48.30
2023-03-03T13:34:46.165Z,45.27
2023-03-03T13:37:20.120Z,43.47
2023-03-03T13:39:58.378Z,43.67
2023-03-03T13:42:31.837Z,41.13
2023-03-03T13:45:00.778Z,40.27
2023-03-03T13:47:34.868Z,42.60
2023-03-03T13:50:16.776Z,46.03
2023-03-03T13:52:52.081Z,38.63
2023-03-03T13:55:24.974Z,40.97
2023-03-03T13:58:05.009Z,42.27
2023-03-03T14:00:48.391Z,50.30
2023-03-03T14:03:28.966Z,40.17
2023-03-03T14:06:32.104Z,40.17
2023-03-03T14:09:12.359Z,39.60
2023-03-03T14:11:50.150Z,36.40
2023-03-03T14:14:40.408Z,40.97
2023-03-03T14:17:22.653Z,34.33
2023-03-03T14:20:05.593Z,42.00
2023-03-03T14:22:49.306Z,40.13
2023-03-03T14:25:34.926Z,39.57
2023-03-03T14:28:19.787Z,38.50
2023-03-03T14:30:57.031Z,38.57
2023-03-03T14:33:38.287Z,37.90
2023-03-03T14:36:19.814Z,45.67
2023-03-03T14:38:53.002Z,39.60
2023-03-03T14:41:38.448Z,38.47
2023-03-03T14:44:23.141Z,38.73
2023-03-03T14:47:06.117Z,36.10
2023-03-03T14:49:39.047Z,41.63
2023-03-03T14:52:21.272Z,41.80
2023-03-03T14:54:54.129Z,37.00
2023-03-03T14:57:46.366Z,38.97
2023-03-03T15:01:04.454Z,36.97
2023-03-03T15:03:38.642Z,45.57
2023-03-03T15:06:22.952Z,39.40
2023-03-03T15:08:52.524Z,34.00
2023-03-03T15:11:38.960Z,39.63
2023-03-03T15:14:26.734Z,38.27
2023-03-03T16:13:55.012Z,40.10
2023-03-03T16:16:35.665Z,39.90
2023-03-03T16:19:24.417Z,41.90
2023-03-03T16:22:12.908Z,35.60
2023-03-03T16:24:53.446Z,39.37
2023-03-03T16:27:25.609Z,42.00
2023-03-03T16:30:22.304Z,40.40
2023-03-03T16:44:33.474Z,41.93
2023-03-03T17:14:51.085Z,37.93
2023-03-03T17:17:34.086Z,43.93
2023-03-03T17:20:26.062Z,41.70
2023-03-03T17:25:46.855Z,45.43
2023-03-03T17:28:33.796Z,42.90
2023-03-03T17:31:23.442Z,41.80
2023-03-03T17:34:29.310Z,45.37
2023-03-03T17:45:20.950Z,41.67
2023-03-03T17:48:11.367Z,44.83
2023-03-03T17:57:11.348Z,47.63
2023-03-03T18:03:29.456Z,55.80
2023-03-03T18:06:52.300Z,50.03
2023-03-03T18:09:47.512Z,51.47
2023-03-03T18:12:36.238Z,46.93
2023-03-03T18:21:40.184Z,44.83
2023-03-03T18:40:50.186Z,47.33
2023-03-03T18:43:37.548Z,47.93
2023-03-03T18:46:06.351Z,49.67
2023-03-03T18:48:54.464Z,49.20
2023-03-03T18:51:51.652Z,40.50
2023-03-03T18:54:33.415Z,57.93
2023-03-03T18:57:18.552Z,62.77
2023-03-03T19:00:00.233Z,56.83
2023-03-03T19:02:46.507Z,57.40
2023-03-03T19:05:23.517Z,53.10
2023-03-03T19:08:00.707Z,56.27
2023-03-03T19:11:01.040Z,59.23
2023-03-03T19:13:52.014Z,52.23
2023-03-03T19:16:37.302Z,52.83
2023-03-03T19:19:17.719Z,49.47
2023-03-03T19:21:51.219Z,56.50
2023-03-03T19:24:35.051Z,55.40
2023-03-03T19:27:32.762Z,52.20
2023-03-03T19:30:30.454Z,55.20
2023-03-03T19:33:40.982Z,50.80
2023-03-03T19:36:23.129Z,50.83
2023-03-03T19:39:13.585Z,48.07
2023-03-03T19:41:54.462Z,49.77
2023-03-03T19:44:36.420Z,53.70
2023-03-03T19:47:11.655Z,46.90
2023-03-03T19:49:57.811Z,56.93
2023-03-03T19:52:39.421Z,50.83
2023-03-03T19:55:26.082Z,64.70
2023-03-03T19:58:05.016Z,51.93
2023-03-03T20:00:37.370Z,47.70
2023-03-03T20:03:36.485Z,56.67
2023-03-03T20:06:18.734Z,48.67
2023-03-03T20:08:57.611Z,48.00
2023-03-03T20:11:46.387Z,49.40
2023-03-03T20:14:40.085Z,54.63
2023-03-03T20:17:32.197Z,50.90
2023-03-03T20:20:26.233Z,56.60
2023-03-03T20:29:19.031Z,45.63
2023-03-03T20:32:10.628Z,55.20
2023-03-03T20:34:53.782Z,50.90
2023-03-03T20:37:35.689Z,51.90
2023-03-03T20:40:22.276Z,55.97
2023-03-03T20:43:02.119Z,52.43
2023-03-03T20:45:47.184Z,57.20
2023-03-03T20:48:29.571Z,47.00
2023-03-03T20:51:06.555Z,50.57
2023-03-03T20:53:47.438Z,49.53
2023-03-03T20:56:23.245Z,48.10
2023-03-03T20:59:15.715Z,52.47
2023-03-03T21:01:53.706Z,52.03
2023-03-03T21:04:26.560Z,52.30
2023-03-03T21:06:56.217Z,55.33
2023-03-03T21:09:32.804Z,56.80
2023-03-03T21:12:05.078Z,50.33
2023-03-03T21:14:37.344Z,54.13
2023-03-03T21:17:29.101Z,55.53
2023-03-03T21:20:18.238Z,56.97
2023-03-03T21:22:48.733Z,47.93
2023-03-03T21:25:49.133Z,55.00
2023-03-03T21:28:25.837Z,54.93
2023-03-03T21:31:05.132Z,52.60
2023-03-03T21:33:50.101Z,55.53
2023-03-03T21:36:25.421Z,54.83
2023-03-03T21:39:02.607Z,50.97
2023-03-03T21:41:53.048Z,52.37
2023-03-03T21:44:37.932Z,59.40
2023-03-03T21:47:09.773Z,63.10
2023-03-03T21:49:45.116Z,59.40
2023-03-03T21:55:21.267Z,49.13
2023-03-03T21:58:12.070Z,51.00
2023-03-03T22:00:55.387Z,56.20
2023-03-03T22:03:28.389Z,52.60
2023-03-03T22:05:57.719Z,55.07
2023-03-03T22:08:28.898Z,53.43
2023-03-03T22:10:57.394Z,54.37
2023-03-03T22:13:30.131Z,49.47
2023-03-03T22:15:58.863Z,57.13
2023-03-03T22:18:27.331Z,54.17
2023-03-03T22:20:55.541Z,52.27
2023-03-03T22:23:23.721Z,53.70
2023-03-03T22:25:52.388Z,60.50
2023-03-03T22:28:20.753Z,61.37
2023-03-03T22:30:50.626Z,57.13
2023-03-03T22:33:18.762Z,54.90
2023-03-03T22:35:47.098Z,55.20
2023-03-03T22:38:16.740Z,50.10
2023-03-03T22:40:46.108Z,56.33
2023-03-03T22:43:17.439Z,57.73
2023-03-03T22:45:47.294Z,59.07
2023-03-03T22:48:17.078Z,57.07
2023-03-03T22:50:47.660Z,54.60
2023-03-03T22:53:16.199Z,60.23
2023-03-03T22:55:46.220Z,61.47
2023-03-03T22:58:14.686Z,52.47
2023-03-03T23:00:43.343Z,61.50
2023-03-03T23:03:13.593Z,58.80
2023-03-03T23:05:43.995Z,55.40
2023-03-03T23:08:15.462Z,59.97
2023-03-03T23:10:44.108Z,52.50
2023-03-03T23:13:12.387Z,56.20
2023-03-03T23:15:41.060Z,50.80
2023-03-03T23:18:09.424Z,55.20
2023-03-03T23:20:37.954Z,55.43
2023-03-03T23:23:08.102Z,47.57
2023-03-03T23:25:38.449Z,60.80
2023-03-03T23:28:08.255Z,54.73
2023-03-03T23:30:38.033Z,58.60
2023-03-03T23:33:07.709Z,54.83
2023-03-03T23:35:36.709Z,55.93
2023-03-03T23:38:08.720Z,53.73
2023-03-03T23:40:37.408Z,59.60
2023-03-03T23:43:06.573Z,59.87
2023-03-03T23:45:35.760Z,58.07
2023-03-03T23:48:04.038Z,61.70
2023-03-03T23:50:33.394Z,51.87
2023-03-03T23:53:01.801Z,56.73
2023-03-03T23:58:00.828Z,56.73
